sensor_id;sensor_type;location;lat;lon;timestamp;pressure;altitude;pressure_sealevel;temperature;humidity
21182;BME280;10749;46.296;7.524;2022-09-01T00:02:25;94840.28;;;22.36;43.28
21182;BME280;10749;46.296;7.524;2022-09-01T00:04:54;94839.06;;;22.27;43.54
21182;BME280;10749;46.296;7.524;2022-09-01T00:07:26;94840.72;;;22.28;43.71
21182;BME280;10749;46.296;7.524;2022-09-01T00:09:54;94844.47;;;22.27;43.54
21182;BME280;10749;46.296;7.524;2022-09-01T00:12:19;94843.41;;;22.28;43.77
21182;BME280;10749;46.296;7.524;2022-09-01T00:14:46;94839.06;;;22.27;43.52
21182;BME280;10749;46.296;7.524;2022-09-01T00:17:12;94830.41;;;22.25;43.87
21182;BME280;10749;46.296;7.524;2022-09-01T00:19:37;94831.75;;;22.22;43.89
21182;BME280;10749;46.296;7.524;2022-09-01T00:22:04;94835.75;;;22.20;43.77
21182;BME280;10749;46.296;7.524;2022-09-01T00:24:30;94826.97;;;22.07;43.69
21182;BME280;10749;46.296;7.524;2022-09-01T00:26:56;94825.59;;;22.05;43.69
21182;BME280;10749;46.296;7.524;2022-09-01T00:29:22;94824.28;;;22.07;44.13
21182;BME280;10749;46.296;7.524;2022-09-01T00:31:48;94823.78;;;22.11;43.76
21182;BME280;10749;46.296;7.524;2022-09-01T00:34:15;94828.53;;;22.03;44.19
21182;BME280;10749;46.296;7.524;2022-09-01T00:36:40;94822.66;;;22.06;43.94
21182;BME280;10749;46.296;7.524;2022-09-01T00:39:06;94825.59;;;22.05;44.19
21182;BME280;10749;46.296;7.524;2022-09-01T00:41:35;94822.03;;;21.99;43.92
21182;BME280;10749;46.296;7.524;2022-09-01T00:44:05;94830.38;;;21.98;44.28
21182;BME280;10749;46.296;7.524;2022-09-01T00:46:44;94826.28;;;21.95;44.21
21182;BME280;10749;46.296;7.524;2022-09-01T00:49:17;94823.84;;;21.94;44.04
21182;BME280;10749;46.296;7.524;2022-09-01T00:51:47;94833.81;;;21.93;44.14
21182;BME280;10749;46.296;7.524;2022-09-01T00:54:18;94827.00;;;21.91;44.59
21182;BME280;10749;46.296;7.524;2022-09-01T00:56:45;94823.44;;;21.85;44.47
21182;BME280;10749;46.296;7.524;2022-09-01T00:59:11;94832.03;;;21.82;44.71
21182;BME280;10749;46.296;7.524;2022-09-01T01:01:37;94829.25;;;21.77;45.00
21182;BME280;10749;46.296;7.524;2022-09-01T01:04:04;94830.25;;;21.71;45.16
21182;BME280;10749;46.296;7.524;2022-09-01T01:06:30;94842.03;;;21.65;45.03
21182;BME280;10749;46.296;7.524;2022-09-01T01:08:58;94837.13;;;21.62;45.17
21182;BME280;10749;46.296;7.524;2022-09-01T01:11:27;94844.78;;;21.53;45.19
21182;BME280;10749;46.296;7.524;2022-09-01T01:14:02;94842.88;;;21.49;45.02
21182;BME280;10749;46.296;7.524;2022-09-01T01:16:35;94844.00;;;21.53;45.08
21182;BME280;10749;46.296;7.524;2022-09-01T01:19:01;94848.72;;;21.46;45.08
21182;BME280;10749;46.296;7.524;2022-09-01T01:21:38;94845.06;;;21.52;44.98
21182;BME280;10749;46.296;7.524;2022-09-01T01:24:28;94842.88;;;21.49;45.29
21182;BME280;10749;46.296;7.524;2022-09-01T01:26:55;94846.63;;;21.48;45.17
21182;BME280;10749;46.296;7.524;2022-09-01T01:29:25;94846.63;;;21.48;45.09
21182;BME280;10749;46.296;7.524;2022-09-01T01:31:53;94856.06;;;21.50;45.30
21182;BME280;10749;46.296;7.524;2022-09-01T01:34:19;94844.97;;;21.47;45.31
21182;BME280;10749;46.296;7.524;2022-09-01T01:36:45;94854.63;;;21.43;45.36
21182;BME280;10749;46.296;7.524;2022-09-01T01:39:16;94843.75;;;21.38;45.22
21182;BME280;10749;46.296;7.524;2022-09-01T01:41:44;94839.47;;;21.37;45.42
21182;BME280;10749;46.296;7.524;2022-09-01T01:44:14;94842.94;;;21.37;45.64
21182;BME280;10749;46.296;7.524;2022-09-01T01:46:43;94843.84;;;21.43;45.45
21182;BME280;10749;46.296;7.524;2022-09-01T01:49:10;94843.34;;;21.46;45.28
21182;BME280;10749;46.296;7.524;2022-09-01T01:51:38;94843.84;;;21.43;45.41
21182;BME280;10749;46.296;7.524;2022-09-01T01:54:04;94849.66;;;21.35;44.86
21182;BME280;10749;46.296;7.524;2022-09-01T01:56:32;94843.44;;;21.17;44.55
21182;BME280;10749;46.296;7.524;2022-09-01T01:59:02;94835.28;;;21.12;44.64
21182;BME280;10749;46.296;7.524;2022-09-01T02:01:28;94855.09;;;21.06;44.96
21182;BME280;10749;46.296;7.524;2022-09-01T02:03:57;94850.69;;;21.17;44.81
21182;BME280;10749;46.296;7.524;2022-09-01T02:06:24;94847.53;;;21.20;45.16
21182;BME280;10749;46.296;7.524;2022-09-01T02:08:55;94853.16;;;21.18;45.22
21182;BME280;10749;46.296;7.524;2022-09-01T02:11:23;94858.53;;;21.18;45.27
21182;BME280;10749;46.296;7.524;2022-09-01T02:13:50;94855.25;;;21.16;45.43
21182;BME280;10749;46.296;7.524;2022-09-01T02:16:20;94853.66;;;21.15;45.48
21182;BME280;10749;46.296;7.524;2022-09-01T02:18:46;94863.34;;;21.16;45.44
21182;BME280;10749;46.296;7.524;2022-09-01T02:21:14;94863.84;;;21.13;45.44
21182;BME280;10749;46.296;7.524;2022-09-01T02:23:44;94863.72;;;21.08;45.36
21182;BME280;10749;46.296;7.524;2022-09-01T02:26:10;94862.09;;;21.07;45.71
21182;BME280;10749;46.296;7.524;2022-09-01T02:28:37;94865.03;;;21.06;45.65
21182;BME280;10749;46.296;7.524;2022-09-01T02:31:07;94865.53;;;21.03;45.87
21182;BME280;10749;46.296;7.524;2022-09-01T02:33:34;94865.91;;;20.95;46.18
21182;BME280;10749;46.296;7.524;2022-09-01T02:36:03;94870.16;;;20.91;46.33
21182;BME280;10749;46.296;7.524;2022-09-01T02:38:28;94869.41;;;20.79;46.56
21182;BME280;10749;46.296;7.524;2022-09-01T02:41:00;94870.13;;;20.74;46.45
21182;BME280;10749;46.296;7.524;2022-09-01T02:43:27;94866.94;;;20.77;46.71
21182;BME280;10749;46.296;7.524;2022-09-01T02:45:55;94862.88;;;20.75;46.54
21182;BME280;10749;46.296;7.524;2022-09-01T02:48:29;94864.66;;;20.69;46.95
21182;BME280;10749;46.296;7.524;2022-09-01T02:50:57;94861.19;;;20.57;47.17
21182;BME280;10749;46.296;7.524;2022-09-01T02:53:24;94863.56;;;20.53;47.26
21182;BME280;10749;46.296;7.524;2022-09-01T02:55:49;94861.69;;;20.54;46.99
21182;BME280;10749;46.296;7.524;2022-09-01T02:58:16;94864.44;;;20.59;47.29
21182;BME280;10749;46.296;7.524;2022-09-01T03:00:45;94859.66;;;20.61;47.13
21182;BME280;10749;46.296;7.524;2022-09-01T03:03:11;94862.34;;;20.61;47.42
21182;BME280;10749;46.296;7.524;2022-09-01T03:05:37;94863.41;;;20.60;47.15
21182;BME280;10749;46.296;7.524;2022-09-01T03:08:06;94865.53;;;20.58;47.61
21182;BME280;10749;46.296;7.524;2022-09-01T03:10:35;94871.38;;;20.55;47.63
21182;BME280;10749;46.296;7.524;2022-09-01T03:13:06;94865.91;;;20.50;47.39
21182;BME280;10749;46.296;7.524;2022-09-01T03:15:34;94873.06;;;20.44;47.70
21182;BME280;10749;46.296;7.524;2022-09-01T03:18:01;94875.31;;;20.36;47.88
21182;BME280;10749;46.296;7.524;2022-09-01T03:20:29;94878.09;;;20.41;47.84
21182;BME280;10749;46.296;7.524;2022-09-01T03:22:55;94864.56;;;20.36;47.89
21182;BME280;10749;46.296;7.524;2022-09-01T03:25:22;94867.47;;;20.34;48.01
21182;BME280;10749;46.296;7.524;2022-09-01T03:27:49;94862.44;;;20.38;48.28
21182;BME280;10749;46.296;7.524;2022-09-01T03:30:15;94870.50;;;20.38;48.77
21182;BME280;10749;46.296;7.524;2022-09-01T03:32:41;94865.38;;;20.36;48.21
21182;BME280;10749;46.296;7.524;2022-09-01T03:35:07;94872.63;;;20.36;48.37
21182;BME280;10749;46.296;7.524;2022-09-01T03:37:33;94872.41;;;20.37;48.39
21182;BME280;10749;46.296;7.524;2022-09-01T03:40:01;94872.03;;;20.34;48.30
21182;BME280;10749;46.296;7.524;2022-09-01T03:42:28;94873.66;;;20.35;48.38
21182;BME280;10749;46.296;7.524;2022-09-01T03:44:55;94870.75;;;20.36;48.52
21182;BME280;10749;46.296;7.524;2022-09-01T03:47:21;94876.47;;;20.40;48.41
21182;BME280;10749;46.296;7.524;2022-09-01T03:49:48;94877.28;;;20.40;48.10
21182;BME280;10749;46.296;7.524;2022-09-01T03:52:15;94874.25;;;20.37;48.28
21182;BME280;10749;46.296;7.524;2022-09-01T03:54:43;94876.63;;;20.33;48.42
21182;BME280;10749;46.296;7.524;2022-09-01T03:57:09;94881.72;;;20.35;48.51
21182;BME280;10749;46.296;7.524;2022-09-01T03:59:35;94876.25;;;20.30;48.76
21182;BME280;10749;46.296;7.524;2022-09-01T04:02:03;94882.06;;;20.26;48.44
21182;BME280;10749;46.296;7.524;2022-09-01T04:04:28;94875.53;;;20.22;48.88
21182;BME280;10749;46.296;7.524;2022-09-01T04:06:57;94882.13;;;20.15;48.99
21182;BME280;10749;46.296;7.524;2022-09-01T04:09:24;94874.19;;;20.08;49.06
21182;BME280;10749;46.296;7.524;2022-09-01T04:11:49;94877.34;;;20.05;49.11
21182;BME280;10749;46.296;7.524;2022-09-01T04:14:15;94868.38;;;20.00;48.90
21182;BME280;10749;46.296;7.524;2022-09-01T04:16:42;94875.63;;;19.99;48.87
21182;BME280;10749;46.296;7.524;2022-09-01T04:19:26;94871.28;;;19.98;49.34
21182;BME280;10749;46.296;7.524;2022-09-01T04:21:57;94870.25;;;19.99;49.18
21182;BME280;10749;46.296;7.524;2022-09-01T04:24:25;94869.91;;;19.96;49.36
21182;BME280;10749;46.296;7.524;2022-09-01T04:26:53;94864.75;;;19.94;49.25
21182;BME280;10749;46.296;7.524;2022-09-01T04:29:20;94870.00;;;19.89;49.55
21182;BME280;10749;46.296;7.524;2022-09-01T04:31:57;94871.66;;;19.90;49.47
21182;BME280;10749;46.296;7.524;2022-09-01T04:34:26;94872.34;;;19.86;49.28
21182;BME280;10749;46.296;7.524;2022-09-01T04:36:52;94879.59;;;19.85;49.70
21182;BME280;10749;46.296;7.524;2022-09-01T04:39:18;94870.97;;;19.83;49.49
21182;BME280;10749;46.296;7.524;2022-09-01T04:41:45;94886.00;;;19.84;49.56
21182;BME280;10749;46.296;7.524;2022-09-01T04:44:12;94877.63;;;19.80;49.48
21182;BME280;10749;46.296;7.524;2022-09-01T04:46:41;94885.56;;;19.87;49.52
21182;BME280;10749;46.296;7.524;2022-09-01T04:49:08;94871.19;;;19.93;49.50
21182;BME280;10749;46.296;7.524;2022-09-01T04:51:44;94876.44;;;20.00;48.97
21182;BME280;10749;46.296;7.524;2022-09-01T04:54:11;94878.31;;;19.99;49.69
21182;BME280;10749;46.296;7.524;2022-09-01T04:56:42;94873.97;;;19.98;49.58
21182;BME280;10749;46.296;7.524;2022-09-01T04:59:09;94882.59;;;20.00;49.49
21182;BME280;10749;46.296;7.524;2022-09-01T05:01:37;94879.91;;;20.00;49.59
21182;BME280;10749;46.296;7.524;2022-09-01T05:04:14;94882.72;;;20.05;49.28
21182;BME280;10749;46.296;7.524;2022-09-01T05:06:44;94880.25;;;20.15;49.31
21182;BME280;10749;46.296;7.524;2022-09-01T05:09:10;94883.03;;;20.20;49.43
21182;BME280;10749;46.296;7.524;2022-09-01T05:11:38;94887.13;;;20.23;49.55
21182;BME280;10749;46.296;7.524;2022-09-01T05:14:05;94881.75;;;20.23;49.44
21182;BME280;10749;46.296;7.524;2022-09-01T05:16:33;94889.56;;;20.24;49.29
21182;BME280;10749;46.296;7.524;2022-09-01T05:19:00;94889.09;;;20.27;49.67
21182;BME280;10749;46.296;7.524;2022-09-01T05:21:27;94889.22;;;20.33;49.64
21182;BME280;10749;46.296;7.524;2022-09-01T05:23:57;94891.44;;;20.36;49.65
21182;BME280;10749;46.296;7.524;2022-09-01T05:26:27;94891.28;;;20.42;49.29
21182;BME280;10749;46.296;7.524;2022-09-01T05:28:58;94891.06;;;20.44;49.44
21182;BME280;10749;46.296;7.524;2022-09-01T05:31:25;94891.06;;;20.44;49.46
21182;BME280;10749;46.296;7.524;2022-09-01T05:33:52;94895.06;;;20.41;49.71
21182;BME280;10749;46.296;7.524;2022-09-01T05:36:20;94896.19;;;20.45;49.55
21182;BME280;10749;46.296;7.524;2022-09-01T05:38:46;94895.38;;;20.45;49.48
21182;BME280;10749;46.296;7.524;2022-09-01T05:41:13;94903.19;;;20.46;49.48
21182;BME280;10749;46.296;7.524;2022-09-01T05:43:43;94912.19;;;20.52;49.13
21182;BME280;10749;46.296;7.524;2022-09-01T05:46:13;94902.25;;;20.52;49.13
21182;BME280;10749;46.296;7.524;2022-09-01T05:48:44;94897.44;;;20.54;49.06
21182;BME280;10749;46.296;7.524;2022-09-01T05:51:11;94909.59;;;20.57;49.03
21182;BME280;10749;46.296;7.524;2022-09-01T05:53:40;94905.88;;;20.58;48.88
21182;BME280;10749;46.296;7.524;2022-09-01T05:56:07;94908.28;;;20.59;49.16
21182;BME280;10749;46.296;7.524;2022-09-01T05:58:33;94910.75;;;20.61;48.81
21182;BME280;10749;46.296;7.524;2022-09-01T06:01:00;94919.38;;;20.63;49.21
21182;BME280;10749;46.296;7.524;2022-09-01T06:03:26;94907.56;;;20.64;48.84
21182;BME280;10749;46.296;7.524;2022-09-01T06:05:53;94909.78;;;20.67;49.05
21182;BME280;10749;46.296;7.524;2022-09-01T06:08:22;94914.69;;;20.70;49.18
21182;BME280;10749;46.296;7.524;2022-09-01T06:10:48;94907.53;;;20.76;48.89
21182;BME280;10749;46.296;7.524;2022-09-01T06:13:15;94903.56;;;20.78;48.80
21182;BME280;10749;46.296;7.524;2022-09-01T06:15:42;94908.66;;;20.80;49.19
21182;BME280;10749;46.296;7.524;2022-09-01T06:18:11;94908.34;;;20.76;49.13
21182;BME280;10749;46.296;7.524;2022-09-01T06:20:45;94908.94;;;20.78;49.01
21182;BME280;10749;46.296;7.524;2022-09-01T06:23:11;94914.22;;;20.73;48.97
21182;BME280;10749;46.296;7.524;2022-09-01T06:25:40;94913.72;;;20.76;49.04
21182;BME280;10749;46.296;7.524;2022-09-01T06:28:07;94907.28;;;20.77;49.23
21182;BME280;10749;46.296;7.524;2022-09-01T06:30:33;94911.69;;;20.83;48.81
21182;BME280;10749;46.296;7.524;2022-09-01T06:33:01;94908.59;;;20.91;48.78
21182;BME280;10749;46.296;7.524;2022-09-01T06:35:27;94914.56;;;20.93;48.83
21182;BME280;10749;46.296;7.524;2022-09-01T06:37:54;94914.91;;;20.97;48.77
21182;BME280;10749;46.296;7.524;2022-09-01T06:40:21;94914.00;;;21.08;48.83
21182;BME280;10749;46.296;7.524;2022-09-01T06:42:48;94913.41;;;21.17;48.84
21182;BME280;10749;46.296;7.524;2022-09-01T06:45:16;94909.19;;;21.22;48.64
21182;BME280;10749;46.296;7.524;2022-09-01T06:47:43;94919.94;;;21.22;48.35
21182;BME280;10749;46.296;7.524;2022-09-01T06:50:14;94916.84;;;21.30;48.34
21182;BME280;10749;46.296;7.524;2022-09-01T06:52:41;94915.31;;;21.34;48.34
21182;BME280;10749;46.296;7.524;2022-09-01T06:55:11;94916.94;;;21.35;48.35
21182;BME280;10749;46.296;7.524;2022-09-01T06:57:37;94912.88;;;21.32;48.12
21182;BME280;10749;46.296;7.524;2022-09-01T07:00:09;94910.25;;;21.37;48.11
21182;BME280;10749;46.296;7.524;2022-09-01T07:02:53;94913.34;;;21.46;48.14
21182;BME280;10749;46.296;7.524;2022-09-01T07:05:20;94907.56;;;21.54;47.87
21182;BME280;10749;46.296;7.524;2022-09-01T07:07:50;94908.78;;;21.63;47.83
21182;BME280;10749;46.296;7.524;2022-09-01T07:10:17;94910.72;;;21.68;47.64
21182;BME280;10749;46.296;7.524;2022-09-01T07:12:50;94908.34;;;21.71;47.75
21182;BME280;10749;46.296;7.524;2022-09-01T07:15:16;94903.38;;;21.63;47.28
21182;BME280;10749;46.296;7.524;2022-09-01T07:17:50;94913.44;;;21.51;47.65
21182;BME280;10749;46.296;7.524;2022-09-01T07:20:17;94909.91;;;21.34;47.51
21182;BME280;10749;46.296;7.524;2022-09-01T07:22:45;94915.63;;;21.54;47.66
21182;BME280;10749;46.296;7.524;2022-09-01T07:25:10;94918.09;;;21.55;47.35
21182;BME280;10749;46.296;7.524;2022-09-01T07:27:38;94927.41;;;21.48;47.27
21182;BME280;10749;46.296;7.524;2022-09-01T07:30:04;94923.06;;;21.63;47.78
21182;BME280;10749;46.296;7.524;2022-09-01T07:32:32;94917.41;;;21.82;47.41
21182;BME280;10749;46.296;7.524;2022-09-01T07:34:58;94930.19;;;21.91;47.30
21182;BME280;10749;46.296;7.524;2022-09-01T07:37:24;94919.19;;;22.09;47.46
21182;BME280;10749;46.296;7.524;2022-09-01T07:39:52;94929.59;;;22.23;47.46
21182;BME280;10749;46.296;7.524;2022-09-01T07:42:18;94923.16;;;22.24;47.11
21182;BME280;10749;46.296;7.524;2022-09-01T07:44:44;94915.13;;;22.29;47.04
21182;BME280;10749;46.296;7.524;2022-09-01T07:47:09;94914.63;;;22.32;47.11
21182;BME280;10749;46.296;7.524;2022-09-01T07:49:35;94918.94;;;22.33;46.93
21182;BME280;10749;46.296;7.524;2022-09-01T07:52:03;94918.50;;;22.19;47.02
21182;BME280;10749;46.296;7.524;2022-09-01T07:54:29;94912.78;;;22.16;47.21
21182;BME280;10749;46.296;7.524;2022-09-01T07:56:54;94907.84;;;22.29;47.07
21182;BME280;10749;46.296;7.524;2022-09-01T07:59:20;94902.59;;;22.39;46.79
21182;BME280;10749;46.296;7.524;2022-09-01T08:01:45;94906.81;;;22.57;47.06
21182;BME280;10749;46.296;7.524;2022-09-01T08:04:12;94901.50;;;22.62;46.75
21182;BME280;10749;46.296;7.524;2022-09-01T08:06:38;94903.78;;;22.70;46.75
21182;BME280;10749;46.296;7.524;2022-09-01T08:09:04;94897.22;;;22.66;46.50
21182;BME280;10749;46.296;7.524;2022-09-01T08:11:32;94892.03;;;22.81;46.55
21182;BME280;10749;46.296;7.524;2022-09-01T08:13:58;94887.19;;;22.83;46.45
21182;BME280;10749;46.296;7.524;2022-09-01T08:16:29;94882.31;;;22.80;46.64
21182;BME280;10749;46.296;7.524;2022-09-01T08:18:55;94883.50;;;22.89;46.43
21182;BME280;10749;46.296;7.524;2022-09-01T08:21:22;94872.72;;;22.94;46.33
21182;BME280;10749;46.296;7.524;2022-09-01T08:23:49;94880.81;;;22.94;46.41
21182;BME280;10749;46.296;7.524;2022-09-01T08:26:16;94875.41;;;22.89;46.23
21182;BME280;10749;46.296;7.524;2022-09-01T08:28:42;94874.38;;;22.47;46.12
21182;BME280;10749;46.296;7.524;2022-09-01T08:31:09;94870.19;;;22.61;46.44
21182;BME280;10749;46.296;7.524;2022-09-01T08:33:39;94868.69;;;22.70;46.44
21182;BME280;10749;46.296;7.524;2022-09-01T08:36:10;94866.72;;;22.87;46.67
21182;BME280;10749;46.296;7.524;2022-09-01T08:38:36;94869.63;;;23.08;46.22
21182;BME280;10749;46.296;7.524;2022-09-01T08:41:02;94858.91;;;23.18;46.49
21182;BME280;10749;46.296;7.524;2022-09-01T08:46:19;94857.41;;;23.32;45.90
21182;BME280;10749;46.296;7.524;2022-09-01T08:48:52;94853.63;;;23.33;46.01
21182;BME280;10749;46.296;7.524;2022-09-01T08:51:36;94853.47;;;23.13;45.84
21182;BME280;10749;46.296;7.524;2022-09-01T08:57:02;94851.13;;;23.21;46.29
21182;BME280;10749;46.296;7.524;2022-09-01T08:59:29;94849.06;;;23.33;46.06
21182;BME280;10749;46.296;7.524;2022-09-01T09:07:49;94839.19;;;22.85;45.95
21182;BME280;10749;46.296;7.524;2022-09-01T09:10:17;94838.91;;;23.14;46.38
21182;BME280;10749;46.296;7.524;2022-09-01T09:12:52;94828.78;;;23.31;45.48
21182;BME280;10749;46.296;7.524;2022-09-01T09:18:14;94832.13;;;22.79;46.18
21182;BME280;10749;46.296;7.524;2022-09-01T09:20:41;94827.50;;;23.07;45.81
21182;BME280;10749;46.296;7.524;2022-09-01T09:23:16;94820.97;;;23.34;45.76
21182;BME280;10749;46.296;7.524;2022-09-01T09:25:45;94818.50;;;23.65;45.99
21182;BME280;10749;46.296;7.524;2022-09-01T09:28:10;94827.28;;;23.87;45.76
21182;BME280;10749;46.296;7.524;2022-09-01T09:30:36;94829.25;;;24.02;45.73
21182;BME280;10749;46.296;7.524;2022-09-01T09:33:06;94822.78;;;24.08;45.42
21182;BME280;10749;46.296;7.524;2022-09-01T09:41:06;94802.94;;;24.44;45.35
21182;BME280;10749;46.296;7.524;2022-09-01T09:43:37;94807.25;;;24.45;45.26
21182;BME280;10749;46.296;7.524;2022-09-01T09:46:22;94796.44;;;24.40;45.07
21182;BME280;10749;46.296;7.524;2022-09-01T09:48:51;94792.94;;;24.50;45.30
21182;BME280;10749;46.296;7.524;2022-09-01T09:51:29;94788.91;;;24.57;45.22
21182;BME280;10749;46.296;7.524;2022-09-01T09:54:31;94787.56;;;24.60;45.13
21182;BME280;10749;46.296;7.524;2022-09-01T09:59:57;94773.22;;;24.69;45.14
21182;BME280;10749;46.296;7.524;2022-09-01T10:05:24;94753.75;;;24.82;44.75
21182;BME280;10749;46.296;7.524;2022-09-01T10:07:51;94744.56;;;24.83;44.93
21182;BME280;10749;46.296;7.524;2022-09-01T10:10:45;94747.84;;;24.96;45.08
21182;BME280;10749;46.296;7.524;2022-09-01T10:13:12;94741.88;;;25.09;44.78
21182;BME280;10749;46.296;7.524;2022-09-01T10:15:39;94732.66;;;25.10;44.20
21182;BME280;10749;46.296;7.524;2022-09-01T10:18:13;94744.56;;;25.24;44.38
21182;BME280;10749;46.296;7.524;2022-09-01T10:20:45;94730.97;;;25.39;44.70
21182;BME280;10749;46.296;7.524;2022-09-01T10:23:13;94729.88;;;25.55;44.27
21182;BME280;10749;46.296;7.524;2022-09-01T10:25:39;94723.38;;;25.51;44.22
21182;BME280;10749;46.296;7.524;2022-09-01T10:28:12;94720.13;;;25.44;43.96
21182;BME280;10749;46.296;7.524;2022-09-01T10:30:41;94720.69;;;25.46;43.93
21182;BME280;10749;46.296;7.524;2022-09-01T10:33:09;94706.59;;;25.49;43.61
21182;BME280;10749;46.296;7.524;2022-09-01T10:35:39;94705.78;;;25.59;43.92
21182;BME280;10749;46.296;7.524;2022-09-01T10:38:10;94695.19;;;25.67;43.52
21182;BME280;10749;46.296;7.524;2022-09-01T10:40:41;94689.47;;;25.74;43.75
21182;BME280;10749;46.296;7.524;2022-09-01T10:43:25;94689.16;;;25.81;43.29
21182;BME280;10749;46.296;7.524;2022-09-01T10:45:51;94679.34;;;25.90;43.01
21182;BME280;10749;46.296;7.524;2022-09-01T10:48:23;94676.06;;;25.93;42.67
21182;BME280;10749;46.296;7.524;2022-09-01T10:50:52;94684.75;;;26.00;42.69
21182;BME280;10749;46.296;7.524;2022-09-01T11:04:07;94666.97;;;26.28;41.87
21182;BME280;10749;46.296;7.524;2022-09-01T11:06:51;94666.09;;;26.37;41.97
21182;BME280;10749;46.296;7.524;2022-09-01T11:09:29;94667.63;;;26.48;42.06
21182;BME280;10749;46.296;7.524;2022-09-01T11:17:18;94645.19;;;26.72;40.95
21182;BME280;10749;46.296;7.524;2022-09-01T11:19:46;94651.66;;;26.76;41.27
21182;BME280;10749;46.296;7.524;2022-09-01T11:22:26;94652.78;;;26.75;40.53
21182;BME280;10749;46.296;7.524;2022-09-01T11:30:21;94645.53;;;26.99;40.73
21182;BME280;10749;46.296;7.524;2022-09-01T11:32:57;94650.53;;;27.16;40.86
21182;BME280;10749;46.296;7.524;2022-09-01T11:35:26;94635.81;;;27.17;40.56
21182;BME280;10749;46.296;7.524;2022-09-01T11:38:01;94637.13;;;27.24;40.38
21182;BME280;10749;46.296;7.524;2022-09-01T11:40:31;94636.19;;;27.34;40.21
21182;BME280;10749;46.296;7.524;2022-09-01T11:42:58;94627.28;;;27.28;39.48
21182;BME280;10749;46.296;7.524;2022-09-01T11:45:28;94633.19;;;27.35;39.89
21182;BME280;10749;46.296;7.524;2022-09-01T11:48:00;94621.69;;;27.43;39.92
21182;BME280;10749;46.296;7.524;2022-09-01T11:50:32;94620.47;;;27.54;40.15
21182;BME280;10749;46.296;7.524;2022-09-01T11:53:00;94612.22;;;27.65;39.58
21182;BME280;10749;46.296;7.524;2022-09-01T11:57:53;94603.28;;;27.83;39.48
21182;BME280;10749;46.296;7.524;2022-09-01T12:00:26;94609.16;;;27.90;39.20
21182;BME280;10749;46.296;7.524;2022-09-01T12:02:51;94602.75;;;27.99;39.27
21182;BME280;10749;46.296;7.524;2022-09-01T12:05:37;94610.94;;;28.18;39.60
21182;BME280;10749;46.296;7.524;2022-09-01T12:08:11;94599.81;;;28.33;39.35
21182;BME280;10749;46.296;7.524;2022-09-01T12:10:40;94603.38;;;28.15;37.97
21182;BME280;10749;46.296;7.524;2022-09-01T12:13:25;94595.13;;;27.83;38.60
21182;BME280;10749;46.296;7.524;2022-09-01T12:16:00;94595.25;;;27.91;39.10
21182;BME280;10749;46.296;7.524;2022-09-01T12:18:31;94595.72;;;27.98;38.57
21182;BME280;10749;46.296;7.524;2022-09-01T12:20:58;94590.06;;;27.95;38.50
21182;BME280;10749;46.296;7.524;2022-09-01T12:23:33;94586.22;;;27.96;38.35
21182;BME280;10749;46.296;7.524;2022-09-01T12:26:10;94574.91;;;27.89;38.34
21182;BME280;10749;46.296;7.524;2022-09-01T12:28:38;94569.72;;;28.11;38.52
21182;BME280;10749;46.296;7.524;2022-09-01T12:31:11;94574.16;;;28.39;38.14
21182;BME280;10749;46.296;7.524;2022-09-01T12:33:37;94563.28;;;28.72;38.03
21182;BME280;10749;46.296;7.524;2022-09-01T12:36:23;94563.63;;;28.84;37.79
21182;BME280;10749;46.296;7.524;2022-09-01T12:38:51;94563.22;;;29.04;37.54
21182;BME280;10749;46.296;7.524;2022-09-01T12:41:35;94565.34;;;29.07;37.65
21182;BME280;10749;46.296;7.524;2022-09-01T12:47:07;94557.91;;;29.13;37.06
21182;BME280;10749;46.296;7.524;2022-09-01T12:52:07;94548.47;;;28.45;37.09
21182;BME280;10749;46.296;7.524;2022-09-01T12:54:34;94551.88;;;28.37;36.96
21182;BME280;10749;46.296;7.524;2022-09-01T12:57:00;94544.47;;;28.57;36.98
21182;BME280;10749;46.296;7.524;2022-09-01T12:59:25;94543.75;;;28.83;36.68
21182;BME280;10749;46.296;7.524;2022-09-01T13:01:51;94552.72;;;29.11;36.19
21182;BME280;10749;46.296;7.524;2022-09-01T13:06:45;94533.81;;;29.33;35.71
21182;BME280;10749;46.296;7.524;2022-09-01T13:09:10;94535.50;;;29.02;35.66
21182;BME280;10749;46.296;7.524;2022-09-01T13:11:36;94525.00;;;29.09;36.15
21182;BME280;10749;46.296;7.524;2022-09-01T13:14:02;94530.44;;;28.82;35.79
21182;BME280;10749;46.296;7.524;2022-09-01T13:16:27;94526.00;;;28.86;35.70
21182;BME280;10749;46.296;7.524;2022-09-01T13:18:52;94515.41;;;29.12;36.02
21182;BME280;10749;46.296;7.524;2022-09-01T13:21:18;94514.25;;;29.31;35.81
21182;BME280;10749;46.296;7.524;2022-09-01T13:23:43;94517.53;;;29.56;34.91
21182;BME280;10749;46.296;7.524;2022-09-01T13:26:09;94513.25;;;29.77;34.99
21182;BME280;10749;46.296;7.524;2022-09-01T13:28:35;94526.94;;;29.99;34.49
21182;BME280;10749;46.296;7.524;2022-09-01T13:31:02;94508.81;;;30.03;34.57
21182;BME280;10749;46.296;7.524;2022-09-01T13:33:33;94505.28;;;30.03;34.33
21182;BME280;10749;46.296;7.524;2022-09-01T13:35:58;94510.44;;;29.68;34.06
21182;BME280;10749;46.296;7.524;2022-09-01T13:38:24;94505.38;;;29.62;34.02
21182;BME280;10749;46.296;7.524;2022-09-01T13:40:49;94509.19;;;29.74;33.89
21182;BME280;10749;46.296;7.524;2022-09-01T13:43:20;94504.44;;;29.94;33.82
21182;BME280;10749;46.296;7.524;2022-09-01T13:45:46;94495.72;;;29.92;33.18
21182;BME280;10749;46.296;7.524;2022-09-01T13:48:12;94503.06;;;30.05;33.35
21182;BME280;10749;46.296;7.524;2022-09-01T13:50:38;94504.25;;;30.12;33.19
21182;BME280;10749;46.296;7.524;2022-09-01T13:53:04;94495.50;;;30.24;33.18
21182;BME280;10749;46.296;7.524;2022-09-01T13:55:33;94500.66;;;30.25;32.74
21182;BME280;10749;46.296;7.524;2022-09-01T13:57:58;94495.44;;;30.38;32.72
21182;BME280;10749;46.296;7.524;2022-09-01T14:00:31;94491.53;;;30.52;32.31
21182;BME280;10749;46.296;7.524;2022-09-01T14:02:59;94493.47;;;30.52;32.45
21182;BME280;10749;46.296;7.524;2022-09-01T14:05:30;94490.34;;;30.45;32.67
21182;BME280;10749;46.296;7.524;2022-09-01T14:07:57;94491.84;;;30.06;32.78